Corte Madera, CA (94925)

10:14 AM PDT on September 01, 2015 (GMT -0700)
Windward | | Change Station
CLOSE
Current Station
Personal Weather Station
Location: Corte Madera, CA
Elevation: 92 ft
Nearby Weather Stations

Elev 92 ft 37.92 °N, 122.50 °W | Updated 2 seconds ago

Partly Cloudy
Partly Cloudy
67.5 °F
Feels Like 67.5 °F
N
4.0
Wind Variable Wind from SSW
Gusts 7.4 mph

Today
High -- | Low -- °F
--% Chance of Precip.
Yesterday
High -- | Low -- °F
Precip. -- in
6:39 AM 7:39 PM
Waning Gibbous, 87% visible
Pressure 29.90 in
Visibility 10.0 miles
Clouds Few 1500 ft
Dew Point 56 °F
Humidity 66%
Rainfall 0.00 in
Snow Depth Not available.
UV 5.0 out of 12
Pollen 6.90 out of 12
Air Quality Not available.
Flu Activity Not available.
METAR KOAK 011653Z 18009KT 10SM FEW015 20/14 A2990 RMK AO2 SLP123 T02000139
Pressure 29.90 in
Visibility 10.0 miles
Clouds Few 1500 ft
Dew Point 56 °F
Humidity 66%
Rainfall 0.00 in
Snow Depth Not available.
UV 5.0 out of 12
Pollen 6.90 out of 12
Air Quality Not available.
Flu Activity Not available.
METAR KOAK 011653Z 18009KT 10SM FEW015 20/14 A2990 RMK AO2 SLP123 T02000139

10-Day Weather Forecast

×

Almanac

Astronomy

Sep. 01, 2015 Rise Set
Actual Time
Civil Twilight
Nautical Twilight
Astronomical Twilight
Moon
Length of Visible Light
Length of Day
Tomorrow will be .
, % of the Moon is Illuminated

Today's Extremes

State Highs State Lows

Community

WunderPhotos

Upload Photos

1,851,569 photos uploaded!

WunderBlogs® & News

Nearby

Air Quality

  Air Quality AQ Index Pollutant
Not available.

Snow Depth

Station Depth Elevation

Earthquake Activity

City Distance Mag. Time & Date
Minimum magnitude displayed is 2.5.

Coastal Water Temperatures

Place Temperature

Stations

Nearby Weather Stations

Station Location Temp. Windchill Dew Point Humidity Wind Precip. Elev Updated Type